Time;durP1;ratioP1;P1;durP2;ratioP2;P2;SDS_P1;SDS_P2;PMS_P1;PMS_P2;Temp;Humidity;BMP_temperature;BMP_pressure;BME280_temperature;BME280_humidity;BME280_pressure;Samples;Min_cycle;Max_cycle;Signal;HPM_P1;HPM_P2
2022/12/10 00:01:29;;;;;;;105.33;31.30;;;4.10;57.50;;;;;;20686;6866;117856;-87
2022/12/10 00:03:55;;;;;;;189.70;43.03;;;4.00;57.60;;;;;;20453;6868;309740;-88
2022/12/10 00:06:21;;;;;;;144.13;35.33;;;4.10;57.70;;;;;;20672;6868;144839;-88
2022/12/10 00:08:47;;;;;;;133.37;43.20;;;4.20;57.30;;;;;;20465;6868;309680;-87
2022/12/10 00:11:12;;;;;;;139.95;45.40;;;4.30;57.50;;;;;;20472;6868;309147;-87
2022/12/10 00:13:38;;;;;;;103.20;34.07;;;4.60;57.00;;;;;;20694;6868;117646;-87
2022/12/10 00:16:05;;;;;;;100.00;39.40;;;4.50;56.50;;;;;;20474;6868;309657;-88
2022/12/10 00:18:31;;;;;;;114.87;40.67;;;4.60;56.70;;;;;;20459;6868;306947;-88
2022/12/10 00:20:56;;;;;;;80.53;37.40;;;4.80;56.40;;;;;;20479;6868;309193;-87
2022/12/10 00:23:22;;;;;;;70.63;37.57;;;5.00;56.20;;;;;;20480;6868;309642;-89
2022/12/10 00:25:47;;;;;;;68.40;31.13;;;5.20;56.00;;;;;;20690;6868;121385;-87
2022/12/10 00:28:13;;;;;;;55.83;35.10;;;5.00;55.90;;;;;;20478;6868;324156;-87
2022/12/10 00:30:38;;;;;;;63.33;31.20;;;5.00;56.10;;;;;;20678;6868;118603;-89
2022/12/10 00:33:04;;;;;;;54.15;34.10;;;4.90;56.20;;;;;;20456;6868;338942;-88
2022/12/10 00:35:30;;;;;;;55.77;35.97;;;4.90;56.40;;;;;;20478;6868;309191;-87
2022/12/10 00:37:55;;;;;;;56.28;35.97;;;5.10;56.00;;;;;;20483;6868;312209;-88
2022/12/10 00:40:21;;;;;;;69.93;38.38;;;5.30;55.50;;;;;;20458;6868;339265;-87
2022/12/10 00:42:46;;;;;;;54.03;30.00;;;5.40;55.00;;;;;;20679;6868;118233;-91
2022/12/10 00:45:12;;;;;;;51.87;30.23;;;5.20;55.00;;;;;;20691;6868;121724;-90
2022/12/10 00:47:37;;;;;;;51.00;29.23;;;4.90;55.60;;;;;;20690;6868;117981;-88
2022/12/10 00:50:03;;;;;;;58.30;38.58;;;4.60;55.90;;;;;;20477;6868;289083;-88
2022/12/10 00:52:30;;;;;;;58.25;38.47;;;4.70;56.00;;;;;;20441;6868;290291;-89
2022/12/10 00:54:56;;;;;;;54.92;36.83;;;5.10;55.10;;;;;;20465;6868;339304;-88
2022/12/10 00:57:22;;;;;;;70.07;40.97;;;5.10;55.10;;;;;;20478;6868;301021;-88
2022/12/10 00:59:47;;;;;;;53.35;36.80;;;5.30;55.10;;;;;;20485;6868;310319;-89
2022/12/10 01:02:13;;;;;;;54.00;36.43;;;5.40;54.50;;;;;;20490;6868;279594;-88
2022/12/10 01:04:39;;;;;;;49.67;30.70;;;5.50;54.00;;;;;;20675;6868;119688;-88
2022/12/10 01:07:04;;;;;;;55.57;36.27;;;5.30;54.10;;;;;;20480;6868;338908;-88
2022/12/10 01:09:30;;;;;;;46.40;29.47;;;5.20;54.40;;;;;;20698;6868;120393;-90
2022/12/10 01:11:56;;;;;;;51.33;35.00;;;5.00;54.90;;;;;;20475;6866;325593;-89
2022/12/10 01:14:22;;;;;;;75.47;38.00;;;5.00;54.90;;;;;;20456;6867;283865;-88
2022/12/10 01:16:47;;;;;;;62.80;36.10;;;5.20;54.60;;;;;;20473;6868;282708;-88
2022/12/10 01:19:13;;;;;;;77.22;41.28;;;5.40;54.50;;;;;;20474;6868;309764;-88
2022/12/10 01:21:38;;;;;;;51.43;35.13;;;5.50;54.20;;;;;;20479;6868;279171;-88
2022/12/10 01:24:05;;;;;;;55.10;30.73;;;5.30;54.10;;;;;;20688;6868;122243;-88
2022/12/10 01:26:32;;;;;;;43.37;27.03;;;5.40;54.20;;;;;;20657;6868;117603;-89
2022/12/10 01:28:57;;;;;;;36.53;25.57;;;5.00;54.70;;;;;;20680;6868;120818;-88
2022/12/10 01:31:23;;;;;;;39.87;25.10;;;4.70;55.30;;;;;;20690;6868;118170;-89
2022/12/10 01:33:48;;;;;;;48.63;34.00;;;4.50;56.00;;;;;;20479;6868;310106;-88
2022/12/10 01:36:14;;;;;;;113.67;65.83;;;4.50;56.30;;;;;;20696;6868;117745;-88
2022/12/10 01:38:41;;;;;;;47.15;34.55;;;4.50;56.00;;;;;;20445;6868;310118;-88
2022/12/10 01:41:07;;;;;;;38.30;27.83;;;4.70;56.20;;;;;;20685;6868;118735;-88
2022/12/10 01:43:56;;;;;;;44.25;32.63;;;4.70;55.90;;;;;;20466;6868;311109;-89
2022/12/10 01:46:22;;;;;;;45.20;35.03;;;4.70;55.70;;;;;;20440;6868;279745;-88
2022/12/10 01:48:47;;;;;;;45.93;34.10;;;5.00;55.10;;;;;;20468;6868;339319;-88
2022/12/10 01:51:13;;;;;;;38.13;29.10;;;5.10;54.20;;;;;;20686;6868;124065;-90
2022/12/10 01:53:39;;;;;;;46.47;35.87;;;5.10;54.20;;;;;;20453;6868;311496;-88
2022/12/10 01:56:05;;;;;;;44.42;28.25;;;5.10;54.60;;;;;;20693;6868;118692;-88
2022/12/10 01:58:30;;;;;;;45.90;34.20;;;4.90;54.50;;;;;;20448;6868;286066;-89
2022/12/10 02:00:59;;;;;;;47.27;35.70;;;4.90;54.70;;;;;;20493;6868;338882;-88
2022/12/10 02:03:41;;;;;;;44.50;35.47;;;5.10;54.60;;;;;;20474;6868;308653;-89
2022/12/10 02:06:07;;;;;;;36.53;27.43;;;5.20;54.20;;;;;;20673;6868;117678;-89
2022/12/10 02:08:32;;;;;;;47.65;34.92;;;5.00;54.10;;;;;;20371;6877;279028;-88
2022/12/10 02:11:18;;;;;;;39.40;27.17;;;5.00;54.60;;;;;;20673;6862;118211;-88
2022/12/10 02:13:43;;;;;;;44.57;33.67;;;4.80;54.50;;;;;;20472;6862;277898;-88
2022/12/10 02:16:13;;;;;;;39.28;27.80;;;4.90;55.50;;;;;;20661;6862;118381;-90
2022/12/10 02:18:49;;;;;;;36.87;26.67;;;4.70;54.70;;;;;;20671;6862;117969;-87
2022/12/10 02:21:18;;;;;;;49.23;35.07;;;4.50;55.20;;;;;;20416;6877;280719;-87
2022/12/10 02:23:43;;;;;;;46.53;35.23;;;4.50;55.60;;;;;;20456;6860;279101;-87
2022/12/10 02:26:42;;;;;;;47.42;36.17;;;4.80;55.30;;;;;;20463;6862;277849;-87
2022/12/10 02:29:14;;;;;;;48.00;34.93;;;5.00;54.90;;;;;;20477;6862;280794;-89
2022/12/10 02:31:40;;;;;;;47.92;34.30;;;5.20;54.40;;;;;;20399;6877;308113;-87
2022/12/10 02:34:05;;;;;;;40.57;28.20;;;5.40;54.30;;;;;;20680;6862;119544;-87
2022/12/10 02:36:31;;;;;;;44.38;33.63;;;5.10;54.30;;;;;;20462;6862;309621;-89
2022/12/10 02:38:56;;;;;;;43.42;33.65;;;5.10;54.60;;;;;;20477;6862;297803;-87
2022/12/10 02:41:22;;;;;;;38.60;27.85;;;5.20;54.20;;;;;;20647;6877;118174;-88
2022/12/10 02:43:48;;;;;;;46.07;33.50;;;5.10;54.10;;;;;;20469;6862;309203;-88
2022/12/10 02:46:14;;;;;;;42.53;33.37;;;5.20;54.20;;;;;;20419;6877;339565;-87
2022/12/10 02:48:39;;;;;;;43.47;33.40;;;5.10;54.10;;;;;;20461;6862;338959;-87
2022/12/10 02:51:05;;;;;;;42.43;33.30;;;5.30;53.90;;;;;;20463;6862;278140;-87
2022/12/10 02:53:31;;;;;;;43.57;33.63;;;5.40;53.60;;;;;;20531;6862;305484;-91
2022/12/10 02:56:06;;;;;;;37.38;27.70;;;5.50;53.30;;;;;;20645;6877;117725;-87
2022/12/10 02:58:45;;;;;;;41.67;32.90;;;5.20;53.20;;;;;;20465;6862;277473;-87
2022/12/10 03:01:31;;;;;;;40.25;33.63;;;5.10;53.90;;;;;;20499;6862;307685;-88
2022/12/10 03:03:58;;;;;;;36.10;26.30;;;5.20;53.70;;;;;;20745;6862;118806;-90
2022/12/10 03:06:33;;;;;;;39.90;32.13;;;5.00;53.70;;;;;;20531;6862;305655;-92
2022/12/10 03:08:58;;;;;;;40.28;32.42;;;4.90;54.20;;;;;;20523;6871;308133;-92
2022/12/10 03:11:24;;;;;;;35.33;26.10;;;5.10;54.00;;;;;;20718;6877;119375;-93
2022/12/10 03:14:06;;;;;;;40.60;32.13;;;4.90;53.90;;;;;;20560;6862;309060;-91
2022/12/10 03:16:35;;;;;;;33.53;24.97;;;4.70;54.20;;;;;;20649;6877;119712;-88
2022/12/10 03:19:01;;;;;;;37.17;23.53;;;4.70;54.30;;;;;;20698;6862;120644;-89
2022/12/10 03:21:27;;;;;;;36.42;29.35;;;4.40;54.60;;;;;;20473;6862;294860;-87
2022/12/10 03:23:53;;;;;;;31.30;24.50;;;4.40;55.10;;;;;;20689;6862;117338;-90
2022/12/10 03:26:20;;;;;;;37.57;30.73;;;4.30;54.80;;;;;;20464;6862;307965;-88
2022/12/10 03:28:46;;;;;;;31.80;24.90;;;4.40;55.10;;;;;;20656;6877;117866;-87
2022/12/10 03:31:13;;;;;;;30.20;23.13;;;4.10;55.90;;;;;;20676;6862;117604;-90
2022/12/10 03:33:39;;;;;;;35.97;27.37;;;4.10;55.40;;;;;;20690;6862;118671;-87
2022/12/10 03:36:05;;;;;;;39.20;31.03;;;3.90;55.80;;;;;;20476;6861;307373;-90
2022/12/10 03:38:30;;;;;;;40.13;32.93;;;4.00;56.10;;;;;;20464;6862;307471;-87
2022/12/10 03:40:56;;;;;;;36.28;25.67;;;4.30;55.80;;;;;;20702;6862;117674;-88
2022/12/10 03:43:21;;;;;;;36.90;24.67;;;4.30;55.60;;;;;;20710;6862;117964;-88
2022/12/10 03:45:47;;;;;;;37.90;29.73;;;4.10;55.80;;;;;;20442;6877;337863;-89
2022/12/10 03:48:12;;;;;;;34.23;26.73;;;4.20;56.40;;;;;;20701;6862;118235;-89
2022/12/10 03:50:38;;;;;;;37.83;29.97;;;4.20;56.30;;;;;;20423;6877;281475;-88
2022/12/10 03:53:04;;;;;;;37.97;31.52;;;4.30;56.70;;;;;;20488;6862;319026;-90
2022/12/10 03:55:29;;;;;;;31.57;24.60;;;4.60;56.10;;;;;;20679;6871;118508;-89
2022/12/10 03:57:55;;;;;;;30.33;23.63;;;4.60;55.70;;;;;;20641;6881;118029;-87
2022/12/10 04:00:20;;;;;;;30.83;23.65;;;4.40;55.90;;;;;;20627;6877;118201;-89
2022/12/10 04:02:46;;;;;;;35.10;23.00;;;4.20;56.30;;;;;;20699;6862;118857;-88
2022/12/10 04:05:11;;;;;;;40.33;30.93;;;4.00;56.70;;;;;;20431;6877;308126;-87
2022/12/10 04:07:37;;;;;;;32.73;25.30;;;4.20;57.20;;;;;;20700;6862;119456;-88
2022/12/10 04:10:03;;;;;;;33.17;23.27;;;4.20;56.80;;;;;;20744;6862;120835;-87
2022/12/10 04:12:28;;;;;;;28.97;21.63;;;4.10;57.00;;;;;;20713;6862;120628;-87
2022/12/10 04:17:42;;;;;;;34.83;25.00;;;4.10;57.40;;;;;;20664;6877;117723;-86
2022/12/10 04:26:51;;;;;;;37.93;30.93;;;4.20;56.90;;;;;;20492;6862;280412;-86
2022/12/10 04:28:08;;;;;;;38.73;30.83;;;4.50;55.80;;;;;;20448;6877;306808;-86
2022/12/10 04:30:33;;;;;;;36.50;24.67;;;4.60;55.90;;;;;;20682;6862;127870;-89
2022/12/10 04:33:00;;;;;;;29.30;22.77;;;4.60;55.80;;;;;;20666;6877;119532;-86
2022/12/10 04:35:26;;;;;;;27.57;20.80;;;4.30;56.10;;;;;;20708;6862;118080;-86
2022/12/10 04:37:51;;;;;;;38.50;30.53;;;4.20;56.80;;;;;;20454;6877;278015;-88
2022/12/10 04:40:17;;;;;;;35.53;30.17;;;4.30;57.00;;;;;;20484;6862;308252;-86
2022/12/10 04:42:42;;;;;;;35.33;25.27;;;4.60;56.30;;;;;;20635;6877;119997;-87
2022/12/10 04:45:08;;;;;;;27.90;21.40;;;4.60;55.90;;;;;;20701;6862;118846;-87
2022/12/10 04:47:34;;;;;;;30.57;22.07;;;4.40;56.20;;;;;;20651;6876;117759;-87
2022/12/10 04:50:01;;;;;;;32.75;29.05;;;4.20;56.70;;;;;;20483;6862;292495;-87
2022/12/10 04:52:26;;;;;;;27.00;23.13;;;4.30;57.00;;;;;;20639;6877;122597;-87
2022/12/10 04:54:52;;;;;;;32.07;22.00;;;4.30;56.60;;;;;;20695;6862;118183;-88
2022/12/10 04:57:17;;;;;;;30.45;22.15;;;4.20;56.80;;;;;;20664;6877;118718;-87
2022/12/10 04:59:43;;;;;;;35.83;30.02;;;4.00;56.90;;;;;;20477;6862;311082;-89
2022/12/10 05:02:10;;;;;;;36.17;30.37;;;4.50;55.90;;;;;;20441;6877;308742;-87
2022/12/10 05:04:35;;;;;;;38.30;33.23;;;4.50;56.10;;;;;;20467;6862;280434;-87
2022/12/10 05:07:01;;;;;;;35.27;29.67;;;4.80;55.30;;;;;;20432;6877;307477;-88
2022/12/10 05:09:26;;;;;;;34.08;29.67;;;5.00;54.50;;;;;;20494;6862;306513;-87
2022/12/10 05:11:52;;;;;;;34.80;30.02;;;5.20;54.00;;;;;;20485;6862;278329;-88
2022/12/10 05:14:17;;;;;;;32.97;29.37;;;5.30;53.50;;;;;;20493;6862;309286;-88
2022/12/10 05:16:43;;;;;;;29.13;24.50;;;5.40;53.30;;;;;;20677;6862;118310;-90
2022/12/10 05:19:09;;;;;;;34.30;29.33;;;5.10;53.90;;;;;;20446;6877;278503;-90
2022/12/10 05:24:21;;;;;;;33.73;28.77;;;4.80;54.10;;;;;;20436;6877;278747;-91
2022/12/10 05:26:50;;;;;;;33.63;28.15;;;5.00;54.10;;;;;;20489;6862;317099;-90
2022/12/10 05:29:13;;;;;;;30.53;24.07;;;5.00;54.00;;;;;;20685;6862;117553;-87
2022/12/10 05:31:39;;;;;;;32.33;28.40;;;4.90;53.90;;;;;;20442;6877;307391;-87
2022/12/10 05:34:04;;;;;;;29.70;22.70;;;4.90;54.30;;;;;;20700;6862;117821;-88
2022/12/10 05:36:30;;;;;;;29.55;21.83;;;4.70;54.30;;;;;;20681;6862;117731;-91
2022/12/10 05:38:55;;;;;;;33.38;28.25;;;4.40;54.50;;;;;;20485;6862;337298;-89
2022/12/10 05:41:24;;;;;;;34.05;30.00;;;4.50;54.90;;;;;;20453;6871;309191;-87
2022/12/10 05:43:50;;;;;;;32.53;28.95;;;4.70;54.60;;;;;;20436;6877;337802;-87
2022/12/10 05:46:19;;;;;;;28.87;23.83;;;4.90;54.40;;;;;;20703;6862;119727;-88
2022/12/10 05:48:44;;;;;;;34.08;29.42;;;4.70;54.20;;;;;;20459;6862;336909;-87
2022/12/10 05:51:10;;;;;;;34.50;24.65;;;4.70;54.60;;;;;;20645;6877;118606;-89
2022/12/10 05:53:35;;;;;;;30.67;23.73;;;4.60;54.60;;;;;;20696;6862;117777;-87
2022/12/10 05:56:07;;;;;;;33.05;27.75;;;4.40;55.00;;;;;;20486;6862;307391;-88
2022/12/10 05:58:33;;;;;;;30.70;23.60;;;4.40;55.30;;;;;;20603;6876;129619;-88
2022/12/10 06:00:58;;;;;;;25.13;20.57;;;4.30;55.30;;;;;;20675;6862;117792;-88
2022/12/10 06:03:24;;;;;;;26.10;21.80;;;4.10;55.40;;;;;;20651;6877;119109;-87
2022/12/10 06:05:50;;;;;;;28.50;21.27;;;3.90;55.80;;;;;;20694;6862;117399;-88
2022/12/10 06:08:15;;;;;;;33.33;29.10;;;3.80;56.20;;;;;;20445;6877;297225;-88
2022/12/10 06:10:41;;;;;;;33.50;29.13;;;3.90;56.40;;;;;;20467;6862;331196;-87
2022/12/10 06:13:07;;;;;;;33.22;28.62;;;4.60;55.90;;;;;;20448;6877;338277;-87
2022/12/10 06:15:34;;;;;;;31.93;28.00;;;4.60;55.20;;;;;;20489;6862;306504;-91
2022/12/10 06:18:03;;;;;;;34.43;29.33;;;4.90;54.10;;;;;;20455;6877;278329;-90
2022/12/10 06:20:29;;;;;;;27.47;22.53;;;4.90;54.10;;;;;;20642;6877;119382;-90
2022/12/10 06:22:55;;;;;;;26.40;20.90;;;4.70;54.10;;;;;;20710;6862;116681;-91
2022/12/10 06:25:21;;;;;;;31.42;27.15;;;4.40;55.10;;;;;;20371;6871;311645;-90
2022/12/10 06:27:46;;;;;;;26.47;22.87;;;4.40;55.00;;;;;;20470;6877;67485;-90
2022/12/10 06:30:12;;;;;;;35.93;25.70;;;4.30;55.10;;;;;;20752;6862;117096;-91
2022/12/10 06:32:39;;;;;;;35.83;26.00;;;4.10;55.40;;;;;;20651;6877;117973;-90
2022/12/10 06:35:04;;;;;;;37.90;31.12;;;4.00;56.00;;;;;;20518;6862;277522;-87
2022/12/10 06:37:30;;;;;;;28.33;23.37;;;4.00;56.00;;;;;;20674;6877;116687;-88
2022/12/10 06:39:56;;;;;;;34.03;28.58;;;4.00;55.70;;;;;;20502;6862;297098;-89
2022/12/10 06:42:22;;;;;;;30.07;23.47;;;4.10;55.80;;;;;;20654;6877;117759;-90
2022/12/10 06:44:48;;;;;;;33.03;28.57;;;4.00;55.50;;;;;;20447;6877;282857;-87
2022/12/10 06:47:14;;;;;;;29.50;23.70;;;4.10;55.80;;;;;;20650;6877;117618;-89
2022/12/10 06:49:39;;;;;;;25.40;20.23;;;4.10;55.60;;;;;;20703;6862;117573;-86
2022/12/10 06:52:05;;;;;;;29.20;20.80;;;3.90;56.40;;;;;;20697;6862;121203;-87
2022/12/10 06:54:30;;;;;;;33.73;27.37;;;3.70;56.10;;;;;;20376;6877;305045;-88
2022/12/10 06:56:57;;;;;;;31.27;27.85;;;3.80;56.70;;;;;;20458;6862;308551;-88
2022/12/10 06:59:24;;;;;;;30.27;24.43;;;4.20;56.30;;;;;;20687;6871;118371;-87
2022/12/10 07:01:49;;;;;;;28.60;22.20;;;4.10;55.90;;;;;;20640;6877;119165;-87
2022/12/10 07:04:15;;;;;;;25.85;21.05;;;4.00;56.30;;;;;;20703;6862;118924;-87
2022/12/10 07:06:41;;;;;;;26.83;20.63;;;3.80;56.50;;;;;;20694;6862;118022;-87
2022/12/10 07:09:06;;;;;;;33.23;27.93;;;3.60;56.80;;;;;;20459;6877;312863;-89
2022/12/10 07:11:32;;;;;;;30.62;27.02;;;3.80;57.00;;;;;;20454;6876;281089;-90
2022/12/10 07:13:57;;;;;;;25.73;21.90;;;4.10;56.20;;;;;;20709;6862;118408;-87
2022/12/10 07:16:25;;;;;;;30.52;27.02;;;4.10;55.80;;;;;;20428;6877;310787;-88
2022/12/10 07:18:50;;;;;;;26.07;22.00;;;4.20;55.70;;;;;;20698;6862;117702;-91
2022/12/10 07:21:22;;;;;;;24.87;20.08;;;4.20;55.60;;;;;;20739;6862;117913;-93
2022/12/10 07:23:49;;;;;;;17.33;15.20;;;4.00;55.80;;;;;;20703;6862;117882;-88
2022/12/10 07:26:14;;;;;;;16.50;13.73;;;3.80;56.30;;;;;;20699;6862;117411;-89
2022/12/10 07:28:41;;;;;;;22.63;17.97;;;3.70;57.00;;;;;;20688;6862;118747;-91
2022/12/10 07:31:07;;;;;;;21.67;18.03;;;3.60;57.50;;;;;;20653;6877;118001;-90
2022/12/10 07:33:32;;;;;;;28.63;21.23;;;3.60;57.70;;;;;;20701;6862;122903;-90
2022/12/10 07:35:58;;;;;;;29.90;22.00;;;3.60;57.80;;;;;;20704;6862;117610;-90
2022/12/10 07:38:23;;;;;;;32.70;27.17;;;3.60;58.00;;;;;;20421;6877;309003;-89
2022/12/10 07:40:49;;;;;;;34.75;29.60;;;3.80;57.90;;;;;;20488;6862;277374;-89
2022/12/10 07:43:14;;;;;;;34.72;28.62;;;4.20;56.60;;;;;;20493;6862;280079;-89
2022/12/10 07:45:40;;;;;;;29.35;26.15;;;4.60;55.60;;;;;;20500;6862;278961;-90
2022/12/10 07:48:06;;;;;;;27.05;22.33;;;4.90;54.90;;;;;;20675;6877;118887;-90
2022/12/10 07:50:31;;;;;;;28.03;25.17;;;4.90;54.70;;;;;;20472;6862;326933;-92
2022/12/10 07:52:57;;;;;;;27.02;24.27;;;5.00;54.60;;;;;;20471;6871;309528;-90
2022/12/10 07:55:23;;;;;;;27.40;24.60;;;5.10;53.80;;;;;;20438;6877;312523;-88
2022/12/10 07:57:49;;;;;;;23.33;20.47;;;5.40;53.30;;;;;;20666;6877;121692;-87
2022/12/10 08:00:16;;;;;;;21.80;19.40;;;5.00;53.80;;;;;;20701;6862;119692;-86
2022/12/10 08:02:42;;;;;;;22.43;18.83;;;5.00;53.80;;;;;;20639;6877;119437;-87
2022/12/10 08:05:07;;;;;;;23.30;18.48;;;4.80;54.20;;;;;;20702;6862;117482;-87
2022/12/10 08:07:33;;;;;;;28.60;23.13;;;4.60;54.60;;;;;;20657;6877;117600;-90
2022/12/10 08:09:58;;;;;;;27.30;24.60;;;4.40;54.90;;;;;;20484;6862;279522;-87
2022/12/10 08:12:28;;;;;;;28.25;25.40;;;4.50;54.80;;;;;;20410;6877;279833;-89
2022/12/10 08:14:50;;;;;;;22.63;20.23;;;4.90;54.10;;;;;;20597;6877;117785;-88
2022/12/10 08:17:16;;;;;;;23.87;20.00;;;4.90;53.90;;;;;;20703;6862;117886;-87
2022/12/10 08:19:42;;;;;;;21.48;19.17;;;4.60;54.50;;;;;;20650;6877;117007;-87
2022/12/10 08:22:11;;;;;;;22.80;18.87;;;4.60;54.50;;;;;;20705;6860;117052;-88
2022/12/10 08:24:37;;;;;;;26.17;23.57;;;4.50;55.00;;;;;;20415;6877;279174;-85
2022/12/10 08:27:02;;;;;;;23.27;20.77;;;4.60;54.60;;;;;;20757;6862;122612;-91
2022/12/10 08:29:42;;;;;;;22.47;20.07;;;4.60;54.50;;;;;;20706;6877;117643;-87
2022/12/10 08:32:07;;;;;;;27.17;24.50;;;4.60;54.50;;;;;;20494;6862;277679;-87
2022/12/10 08:34:34;;;;;;;26.62;24.02;;;5.10;53.50;;;;;;20452;6871;336422;-88
2022/12/10 08:36:59;;;;;;;26.40;23.90;;;5.10;53.50;;;;;;20445;6877;277398;-88
2022/12/10 08:39:25;;;;;;;26.15;23.55;;;5.40;52.60;;;;;;20494;6862;278582;-87
2022/12/10 08:41:50;;;;;;;21.70;19.43;;;5.70;52.10;;;;;;20656;6877;119836;-87
2022/12/10 08:44:29;;;;;;;25.77;23.38;;;5.50;52.00;;;;;;20474;6862;310999;-89
2022/12/10 08:46:48;;;;;;;22.37;19.33;;;5.60;52.20;;;;;;20592;6877;118031;-90
2022/12/10 08:49:11;;;;;;;22.02;19.67;;;5.40;52.20;;;;;;20721;6862;117440;-91
2022/12/10 08:51:37;;;;;;;22.37;18.70;;;5.20;52.60;;;;;;20724;6862;118335;-89
2022/12/10 08:54:05;;;;;;;21.27;19.07;;;5.00;52.90;;;;;;20667;6877;117915;-89
2022/12/10 08:56:30;;;;;;;26.83;24.07;;;4.80;53.20;;;;;;20477;6862;308097;-87
2022/12/10 08:58:57;;;;;;;27.13;24.50;;;4.90;53.30;;;;;;20467;6877;307929;-91
2022/12/10 09:01:23;;;;;;;26.03;23.33;;;5.20;52.60;;;;;;20509;6862;278067;-87
2022/12/10 09:03:49;;;;;;;25.62;23.23;;;5.50;52.00;;;;;;20453;6877;338122;-88
2022/12/10 09:06:14;;;;;;;22.98;20.50;;;5.80;51.60;;;;;;20710;6862;119107;-93
2022/12/10 09:08:40;;;;;;;21.43;19.23;;;5.70;51.50;;;;;;20673;6862;117510;-89
2022/12/10 09:11:06;;;;;;;21.87;18.70;;;5.30;53.10;;;;;;20656;6877;119572;-90
2022/12/10 09:13:31;;;;;;;26.93;24.23;;;5.30;52.70;;;;;;20470;6862;306810;-90
2022/12/10 09:15:57;;;;;;;23.45;20.92;;;5.40;52.40;;;;;;20657;6877;118078;-87
2022/12/10 09:18:23;;;;;;;23.17;19.98;;;5.40;52.30;;;;;;20683;6862;118792;-85
2022/12/10 09:20:49;;;;;;;26.48;23.95;;;5.30;53.30;;;;;;20459;6877;310241;-84
2022/12/10 09:23:15;;;;;;;26.33;23.80;;;5.50;52.40;;;;;;20502;6862;277219;-85
2022/12/10 09:25:41;;;;;;;26.17;23.65;;;6.00;50.90;;;;;;20451;6877;322610;-85
2022/12/10 09:28:09;;;;;;;22.10;19.80;;;6.00;50.80;;;;;;20712;6862;118075;-85
2022/12/10 09:30:35;;;;;;;23.20;20.30;;;5.90;50.80;;;;;;20659;6877;118182;-86
2022/12/10 09:33:01;;;;;;;21.90;19.03;;;5.70;51.20;;;;;;20724;6861;118471;-87
2022/12/10 09:35:26;;;;;;;22.80;17.90;;;5.40;51.70;;;;;;20723;6862;117900;-86
2022/12/10 09:37:52;;;;;;;20.50;18.30;;;5.20;52.10;;;;;;20726;6862;117308;-87
2022/12/10 09:40:17;;;;;;;26.37;23.67;;;5.00;52.40;;;;;;20506;6862;307968;-87
2022/12/10 09:43:01;;;;;;;22.10;19.77;;;5.20;52.50;;;;;;20664;6862;119003;-86
2022/12/10 09:45:32;;;;;;;20.80;18.47;;;5.20;52.50;;;;;;19724;7192;119217;-86
2022/12/10 09:48:08;;;;;;;21.77;19.50;;;5.10;52.70;;;;;;20595;6877;117839;-86
2022/12/10 09:50:38;;;;;;;21.07;18.77;;;5.00;52.90;;;;;;20700;6862;118750;-85
2022/12/10 09:53:02;;;;;;;20.10;17.87;;;4.90;53.20;;;;;;20641;6877;119112;-86
2022/12/10 09:55:31;;;;;;;20.67;18.43;;;4.70;53.30;;;;;;20705;6862;117516;-86
2022/12/10 09:57:57;;;;;;;26.40;23.87;;;4.70;53.70;;;;;;20477;6862;307444;-87
2022/12/10 10:00:29;;;;;;;23.23;20.62;;;4.90;53.60;;;;;;20636;6877;118827;-86
2022/12/10 10:02:55;;;;;;;24.77;20.87;;;5.10;53.50;;;;;;20701;6862;117599;-87
2022/12/10 10:05:24;;;;;;;26.47;23.87;;;5.10;53.50;;;;;;20441;6877;308905;-86
2022/12/10 10:07:51;;;;;;;27.30;24.60;;;5.30;53.20;;;;;;20491;6862;278103;-85
2022/12/10 10:10:33;;;;;;;26.08;23.58;;;5.60;52.30;;;;;;20486;6862;332746;-89
2022/12/10 10:12:58;;;;;;;26.97;24.37;;;5.90;51.30;;;;;;20491;6862;294788;-83
2022/12/10 10:15:24;;;;;;;23.13;20.63;;;6.20;49.90;;;;;;20650;6877;118194;-86
2022/12/10 10:17:49;;;;;;;27.98;25.17;;;6.00;50.00;;;;;;20388;6878;307059;-83
2022/12/10 10:20:15;;;;;;;28.85;26.08;;;6.00;50.20;;;;;;20511;6862;303895;-82
2022/12/10 10:22:40;;;;;;;27.80;25.00;;;6.10;50.10;;;;;;20513;6862;308554;-85
2022/12/10 10:25:13;;;;;;;23.77;20.67;;;6.20;49.90;;;;;;20734;6871;116792;-83
2022/12/10 10:27:39;;;;;;;25.03;20.83;;;6.20;49.90;;;;;;20677;6877;117784;-87
2022/12/10 10:30:05;;;;;;;28.83;24.63;;;5.80;50.40;;;;;;20515;6862;306374;-82
2022/12/10 10:32:37;;;;;;;27.97;20.77;;;5.80;50.60;;;;;;20697;6862;127534;-89
2022/12/10 10:35:02;;;;;;;23.07;20.50;;;5.70;50.70;;;;;;20735;6862;119039;-89
2022/12/10 10:37:34;;;;;;;28.07;25.10;;;5.50;51.10;;;;;;20492;6877;307286;-86
2022/12/10 10:40:01;;;;;;;24.10;21.60;;;5.60;51.10;;;;;;20664;6878;116741;-84
2022/12/10 10:42:33;;;;;;;21.80;19.50;;;5.50;51.00;;;;;;20693;6862;118084;-86
2022/12/10 10:44:59;;;;;;;27.37;24.63;;;5.50;51.70;;;;;;20510;6861;277944;-87
2022/12/10 10:47:27;;;;;;;27.67;25.00;;;5.40;51.30;;;;;;20476;6870;310329;-87
2022/12/10 10:49:54;;;;;;;29.17;26.27;;;6.10;50.30;;;;;;20472;6877;308328;-86
2022/12/10 10:52:19;;;;;;;23.17;20.83;;;6.00;50.30;;;;;;20712;6862;117477;-86
2022/12/10 10:54:45;;;;;;;27.23;24.63;;;6.00;50.30;;;;;;20464;6877;308130;-87
2022/12/10 10:57:10;;;;;;;27.27;24.77;;;6.00;49.80;;;;;;20505;6862;307426;-86
2022/12/10 10:59:36;;;;;;;27.27;22.20;;;6.20;49.40;;;;;;20712;6862;119347;-88
2022/12/10 11:02:38;;;;;;;22.67;19.70;;;6.10;49.60;;;;;;20720;6862;118085;-91
2022/12/10 11:05:04;;;;;;;22.07;19.00;;;5.80;50.20;;;;;;20697;6862;117702;-88
2022/12/10 11:07:30;;;;;;;21.73;19.43;;;5.50;50.90;;;;;;20689;6862;118277;-86
2022/12/10 11:09:55;;;;;;;26.67;24.17;;;5.30;51.40;;;;;;20434;6877;300835;-86
2022/12/10 11:12:38;;;;;;;26.70;23.93;;;5.70;50.00;;;;;;20466;6862;338549;-85
2022/12/10 11:15:13;;;;;;;25.40;22.90;;;5.70;49.90;;;;;;20478;6862;281229;-86
2022/12/10 11:17:39;;;;;;;22.83;20.43;;;6.00;49.40;;;;;;20650;6862;117914;-86
2022/12/10 11:20:25;;;;;;;26.58;23.98;;;5.90;49.50;;;;;;20476;6862;278720;-88
2022/12/10 11:22:57;;;;;;;25.92;23.48;;;5.90;49.40;;;;;;20485;6862;336494;-86
2022/12/10 11:25:29;;;;;;;25.75;23.38;;;6.10;48.50;;;;;;20485;6862;307655;-88
2022/12/10 11:28:00;;;;;;;21.50;19.20;;;6.30;48.20;;;;;;20526;6877;118799;-88
2022/12/10 11:30:27;;;;;;;18.97;16.53;;;6.10;48.60;;;;;;20647;6862;118125;-89
2022/12/10 11:33:06;;;;;;;18.60;16.70;;;5.80;49.30;;;;;;20693;6862;119223;-89
2022/12/10 11:35:58;;;;;;;20.20;17.47;;;5.50;49.90;;;;;;20659;6877;118256;-87
2022/12/10 11:38:26;;;;;;;19.20;16.47;;;5.30;50.40;;;;;;20664;6862;119230;-87
2022/12/10 11:41:06;;;;;;;23.80;21.48;;;5.30;50.60;;;;;;20431;6871;315454;-87
2022/12/10 11:43:51;;;;;;;24.77;22.35;;;5.30;50.70;;;;;;20412;6877;308406;-88
2022/12/10 11:46:47;;;;;;;24.63;22.33;;;5.70;49.90;;;;;;20463;6862;310939;-88
2022/12/10 11:49:16;;;;;;;23.40;21.30;;;6.00;48.40;;;;;;20423;6877;285003;-85
2022/12/10 11:52:02;;;;;;;23.10;20.90;;;6.30;48.40;;;;;;20439;6862;278930;-88
2022/12/10 11:54:52;;;;;;;19.63;17.73;;;6.40;47.70;;;;;;19631;7204;121989;-90
2022/12/10 11:57:38;;;;;;;18.80;16.80;;;6.20;48.00;;;;;;20403;6861;117422;-92
2022/12/10 12:00:23;;;;;;;24.13;21.83;;;5.80;49.00;;;;;;20510;6862;339927;-93
2022/12/10 12:02:58;;;;;;;20.43;18.40;;;5.80;49.10;;;;;;19699;7211;119837;-87
2022/12/10 12:05:24;;;;;;;20.43;17.13;;;5.70;49.30;;;;;;20702;6862;116935;-87
2022/12/10 12:08:17;;;;;;;18.48;16.48;;;5.50;49.50;;;;;;20652;6877;118159;-87
2022/12/10 12:11:11;;;;;;;18.17;16.27;;;5.20;49.80;;;;;;20666;6862;119574;-88
2022/12/10 12:13:46;;;;;;;19.60;16.03;;;5.00;50.40;;;;;;20695;6862;117447;-88
2022/12/10 12:16:15;;;;;;;16.80;15.10;;;5.00;50.90;;;;;;20712;6862;117449;-88
2022/12/10 12:18:41;;;;;;;17.40;15.40;;;4.90;51.10;;;;;;20630;6877;118144;-86
2022/12/10 12:21:10;;;;;;;18.00;15.70;;;4.90;51.30;;;;;;20697;6862;117595;-87
2022/12/10 12:24:01;;;;;;;20.50;18.60;;;4.80;51.40;;;;;;20462;6871;307376;-88
2022/12/10 12:26:28;;;;;;;17.90;16.00;;;5.10;50.70;;;;;;20634;6877;127952;-86
2022/12/10 12:29:15;;;;;;;16.60;14.53;;;5.20;50.30;;;;;;20649;6862;67964;-87
2022/12/10 12:31:42;;;;;;;19.15;17.45;;;5.10;50.50;;;;;;20389;6862;337813;-88
2022/12/10 12:34:36;;;;;;;17.00;15.40;;;5.40;49.60;;;;;;20678;6862;116553;-87
2022/12/10 12:37:01;;;;;;;15.63;14.03;;;5.30;49.50;;;;;;20676;6877;117841;-89
2022/12/10 12:39:30;;;;;;;20.45;18.45;;;5.20;49.70;;;;;;20502;6862;278703;-88
2022/12/10 12:41:56;;;;;;;20.67;18.80;;;5.30;49.10;;;;;;20471;6877;278293;-88